sensor_id;sensor_type;location;lat;lon;timestamp;P1;durP1;ratioP1;P2;durP2;ratioP2
15116;SDS011;7659;51.038;13.786;2023-03-13T00:01:51;20.42;;;4.20;;
15116;SDS011;7659;51.038;13.786;2023-03-13T00:04:16;21.30;;;4.03;;
15116;SDS011;7659;51.038;13.786;2023-03-13T00:06:42;17.70;;;3.85;;
15116;SDS011;7659;51.038;13.786;2023-03-13T00:09:08;17.65;;;4.28;;
15116;SDS011;7659;51.038;13.786;2023-03-13T00:11:34;24.25;;;4.70;;
15116;SDS011;7659;51.038;13.786;2023-03-13T00:14:01;14.68;;;4.20;;
15116;SDS011;7659;51.038;13.786;2023-03-13T00:16:27;14.75;;;3.65;;
15116;SDS011;7659;51.038;13.786;2023-03-13T00:18:53;14.27;;;3.78;;
15116;SDS011;7659;51.038;13.786;2023-03-13T00:21:20;16.13;;;3.95;;
15116;SDS011;7659;51.038;13.786;2023-03-13T00:23:46;20.17;;;4.22;;
15116;SDS011;7659;51.038;13.786;2023-03-13T00:26:12;17.08;;;3.83;;
15116;SDS011;7659;51.038;13.786;2023-03-13T00:28:39;17.52;;;4.43;;
15116;SDS011;7659;51.038;13.786;2023-03-13T00:31:06;18.58;;;4.05;;
15116;SDS011;7659;51.038;13.786;2023-03-13T00:33:32;17.48;;;4.35;;
15116;SDS011;7659;51.038;13.786;2023-03-13T00:36:01;22.70;;;4.38;;
15116;SDS011;7659;51.038;13.786;2023-03-13T00:38:27;18.73;;;3.72;;
15116;SDS011;7659;51.038;13.786;2023-03-13T00:41:04;22.98;;;4.45;;
15116;SDS011;7659;51.038;13.786;2023-03-13T00:43:29;22.02;;;3.92;;
15116;SDS011;7659;51.038;13.786;2023-03-13T00:45:55;15.43;;;3.85;;
15116;SDS011;7659;51.038;13.786;2023-03-13T00:48:21;23.02;;;4.43;;
15116;SDS011;7659;51.038;13.786;2023-03-13T00:50:46;19.08;;;4.45;;
15116;SDS011;7659;51.038;13.786;2023-03-13T00:53:13;16.13;;;3.78;;
15116;SDS011;7659;51.038;13.786;2023-03-13T00:55:38;19.20;;;4.18;;
15116;SDS011;7659;51.038;13.786;2023-03-13T00:58:04;17.92;;;4.07;;
15116;SDS011;7659;51.038;13.786;2023-03-13T01:00:29;20.40;;;6.82;;
15116;SDS011;7659;51.038;13.786;2023-03-13T01:02:55;49.90;;;25.55;;
15116;SDS011;7659;51.038;13.786;2023-03-13T01:05:21;79.80;;;51.50;;
15116;SDS011;7659;51.038;13.786;2023-03-13T01:07:47;15.60;;;4.43;;
15116;SDS011;7659;51.038;13.786;2023-03-13T01:10:12;19.40;;;4.78;;
15116;SDS011;7659;51.038;13.786;2023-03-13T01:12:37;17.75;;;4.22;;
15116;SDS011;7659;51.038;13.786;2023-03-13T01:15:03;17.13;;;4.05;;
15116;SDS011;7659;51.038;13.786;2023-03-13T01:17:29;17.63;;;4.22;;
15116;SDS011;7659;51.038;13.786;2023-03-13T01:19:55;18.58;;;4.13;;
15116;SDS011;7659;51.038;13.786;2023-03-13T01:22:20;19.75;;;4.35;;
15116;SDS011;7659;51.038;13.786;2023-03-13T01:24:46;20.05;;;4.13;;
15116;SDS011;7659;51.038;13.786;2023-03-13T01:27:16;14.73;;;3.63;;
15116;SDS011;7659;51.038;13.786;2023-03-13T01:29:42;23.20;;;4.07;;
15116;SDS011;7659;51.038;13.786;2023-03-13T01:32:07;20.77;;;4.05;;
15116;SDS011;7659;51.038;13.786;2023-03-13T01:34:33;14.15;;;3.65;;
15116;SDS011;7659;51.038;13.786;2023-03-13T01:36:59;22.80;;;4.25;;
15116;SDS011;7659;51.038;13.786;2023-03-13T01:39:24;27.02;;;4.78;;
15116;SDS011;7659;51.038;13.786;2023-03-13T01:41:50;19.15;;;3.72;;
15116;SDS011;7659;51.038;13.786;2023-03-13T01:44:23;18.92;;;4.28;;
15116;SDS011;7659;51.038;13.786;2023-03-13T01:46:49;20.85;;;4.25;;
15116;SDS011;7659;51.038;13.786;2023-03-13T01:49:28;18.25;;;3.80;;
15116;SDS011;7659;51.038;13.786;2023-03-13T01:52:06;17.52;;;3.65;;
15116;SDS011;7659;51.038;13.786;2023-03-13T01:57:07;24.35;;;4.65;;
15116;SDS011;7659;51.038;13.786;2023-03-13T01:59:36;19.15;;;3.97;;
15116;SDS011;7659;51.038;13.786;2023-03-13T02:02:04;17.38;;;4.82;;
15116;SDS011;7659;51.038;13.786;2023-03-13T02:04:32;22.30;;;4.13;;
15116;SDS011;7659;51.038;13.786;2023-03-13T02:07:00;22.08;;;4.45;;
15116;SDS011;7659;51.038;13.786;2023-03-13T02:09:27;18.00;;;3.42;;
15116;SDS011;7659;51.038;13.786;2023-03-13T02:11:56;17.42;;;4.03;;
15116;SDS011;7659;51.038;13.786;2023-03-13T02:14:24;17.75;;;3.95;;
15116;SDS011;7659;51.038;13.786;2023-03-13T02:16:51;22.23;;;4.57;;
15116;SDS011;7659;51.038;13.786;2023-03-13T02:19:27;18.70;;;3.90;;
15116;SDS011;7659;51.038;13.786;2023-03-13T02:21:58;22.02;;;4.30;;
15116;SDS011;7659;51.038;13.786;2023-03-13T02:24:31;16.60;;;3.47;;
15116;SDS011;7659;51.038;13.786;2023-03-13T02:26:57;24.05;;;4.32;;
15116;SDS011;7659;51.038;13.786;2023-03-13T02:29:23;21.00;;;3.88;;
15116;SDS011;7659;51.038;13.786;2023-03-13T02:31:49;22.95;;;4.70;;
15116;SDS011;7659;51.038;13.786;2023-03-13T02:34:16;22.08;;;3.53;;
15116;SDS011;7659;51.038;13.786;2023-03-13T02:36:43;21.10;;;4.05;;
15116;SDS011;7659;51.038;13.786;2023-03-13T02:39:09;24.65;;;4.82;;
15116;SDS011;7659;51.038;13.786;2023-03-13T02:41:35;25.77;;;4.68;;
15116;SDS011;7659;51.038;13.786;2023-03-13T02:44:01;25.92;;;4.88;;
15116;SDS011;7659;51.038;13.786;2023-03-13T02:46:27;43.95;;;16.45;;
15116;SDS011;7659;51.038;13.786;2023-03-13T02:48:53;42.63;;;22.48;;
15116;SDS011;7659;51.038;13.786;2023-03-13T02:51:23;28.20;;;7.72;;
15116;SDS011;7659;51.038;13.786;2023-03-13T02:53:52;22.27;;;5.60;;
15116;SDS011;7659;51.038;13.786;2023-03-13T02:56:19;22.88;;;3.78;;
15116;SDS011;7659;51.038;13.786;2023-03-13T02:58:46;21.75;;;4.93;;
15116;SDS011;7659;51.038;13.786;2023-03-13T03:01:11;21.90;;;4.65;;
15116;SDS011;7659;51.038;13.786;2023-03-13T03:03:39;19.35;;;4.20;;
15116;SDS011;7659;51.038;13.786;2023-03-13T03:06:05;22.27;;;4.03;;
15116;SDS011;7659;51.038;13.786;2023-03-13T03:08:32;20.60;;;3.95;;
15116;SDS011;7659;51.038;13.786;2023-03-13T03:10:57;17.20;;;3.70;;
15116;SDS011;7659;51.038;13.786;2023-03-13T03:13:23;18.60;;;3.90;;
15116;SDS011;7659;51.038;13.786;2023-03-13T03:15:49;20.52;;;4.55;;
15116;SDS011;7659;51.038;13.786;2023-03-13T03:18:15;26.70;;;4.55;;
15116;SDS011;7659;51.038;13.786;2023-03-13T03:20:40;15.98;;;3.30;;
15116;SDS011;7659;51.038;13.786;2023-03-13T03:23:06;22.58;;;4.40;;
15116;SDS011;7659;51.038;13.786;2023-03-13T03:25:31;18.92;;;3.42;;
15116;SDS011;7659;51.038;13.786;2023-03-13T03:27:57;66.85;;;29.92;;
15116;SDS011;7659;51.038;13.786;2023-03-13T03:30:23;56.80;;;32.17;;
15116;SDS011;7659;51.038;13.786;2023-03-13T03:32:50;32.00;;;12.82;;
15116;SDS011;7659;51.038;13.786;2023-03-13T03:35:15;16.90;;;4.05;;
15116;SDS011;7659;51.038;13.786;2023-03-13T03:37:41;16.52;;;3.60;;
15116;SDS011;7659;51.038;13.786;2023-03-13T03:40:07;19.50;;;3.97;;
15116;SDS011;7659;51.038;13.786;2023-03-13T03:42:34;17.25;;;3.63;;
15116;SDS011;7659;51.038;13.786;2023-03-13T03:45:00;17.33;;;4.45;;
15116;SDS011;7659;51.038;13.786;2023-03-13T03:47:26;21.30;;;4.20;;
15116;SDS011;7659;51.038;13.786;2023-03-13T03:49:51;16.30;;;3.83;;
15116;SDS011;7659;51.038;13.786;2023-03-13T03:52:17;18.20;;;3.50;;
15116;SDS011;7659;51.038;13.786;2023-03-13T03:54:43;21.90;;;4.38;;
15116;SDS011;7659;51.038;13.786;2023-03-13T03:57:08;19.17;;;4.10;;
15116;SDS011;7659;51.038;13.786;2023-03-13T03:59:35;13.30;;;3.63;;
15116;SDS011;7659;51.038;13.786;2023-03-13T04:02:08;24.58;;;3.92;;
15116;SDS011;7659;51.038;13.786;2023-03-13T04:04:34;20.83;;;3.78;;
15116;SDS011;7659;51.038;13.786;2023-03-13T04:07:06;16.67;;;3.92;;
15116;SDS011;7659;51.038;13.786;2023-03-13T04:09:33;21.15;;;4.53;;
15116;SDS011;7659;51.038;13.786;2023-03-13T04:12:00;20.63;;;3.67;;
15116;SDS011;7659;51.038;13.786;2023-03-13T04:14:26;24.70;;;4.28;;
15116;SDS011;7659;51.038;13.786;2023-03-13T04:16:51;20.63;;;3.88;;
15116;SDS011;7659;51.038;13.786;2023-03-13T04:19:17;27.50;;;4.38;;
15116;SDS011;7659;51.038;13.786;2023-03-13T04:21:43;18.73;;;3.60;;
15116;SDS011;7659;51.038;13.786;2023-03-13T04:24:12;21.42;;;4.15;;
15116;SDS011;7659;51.038;13.786;2023-03-13T04:26:40;27.52;;;3.88;;
15116;SDS011;7659;51.038;13.786;2023-03-13T04:29:05;20.15;;;4.28;;
15116;SDS011;7659;51.038;13.786;2023-03-13T04:31:52;21.52;;;3.78;;
15116;SDS011;7659;51.038;13.786;2023-03-13T04:34:36;20.08;;;4.15;;
15116;SDS011;7659;51.038;13.786;2023-03-13T04:37:13;19.13;;;3.90;;
15116;SDS011;7659;51.038;13.786;2023-03-13T04:40:08;20.40;;;3.55;;
15116;SDS011;7659;51.038;13.786;2023-03-13T04:42:45;23.25;;;3.92;;
15116;SDS011;7659;51.038;13.786;2023-03-13T04:45:34;23.58;;;3.55;;
15116;SDS011;7659;51.038;13.786;2023-03-13T04:48:12;25.15;;;6.55;;
15116;SDS011;7659;51.038;13.786;2023-03-13T04:50:57;21.95;;;4.60;;
15116;SDS011;7659;51.038;13.786;2023-03-13T04:53:49;21.23;;;4.20;;
15116;SDS011;7659;51.038;13.786;2023-03-13T04:56:33;23.85;;;4.15;;
15116;SDS011;7659;51.038;13.786;2023-03-13T04:59:17;18.95;;;3.35;;
15116;SDS011;7659;51.038;13.786;2023-03-13T05:02:00;24.25;;;4.88;;
15116;SDS011;7659;51.038;13.786;2023-03-13T05:04:45;23.70;;;4.00;;
15116;SDS011;7659;51.038;13.786;2023-03-13T05:07:19;18.20;;;4.13;;
15116;SDS011;7659;51.038;13.786;2023-03-13T05:10:14;24.63;;;5.20;;
15116;SDS011;7659;51.038;13.786;2023-03-13T05:12:44;23.65;;;5.00;;
15116;SDS011;7659;51.038;13.786;2023-03-13T05:15:28;22.83;;;5.17;;
15116;SDS011;7659;51.038;13.786;2023-03-13T05:20:47;24.30;;;4.57;;
15116;SDS011;7659;51.038;13.786;2023-03-13T05:23:31;19.25;;;5.00;;
15116;SDS011;7659;51.038;13.786;2023-03-13T05:26:02;19.48;;;3.72;;
15116;SDS011;7659;51.038;13.786;2023-03-13T05:28:48;19.25;;;3.30;;
15116;SDS011;7659;51.038;13.786;2023-03-13T05:31:29;17.05;;;3.97;;
15116;SDS011;7659;51.038;13.786;2023-03-13T05:34:11;23.50;;;4.22;;
15116;SDS011;7659;51.038;13.786;2023-03-13T05:37:06;23.23;;;5.00;;
15116;SDS011;7659;51.038;13.786;2023-03-13T05:39:31;22.52;;;4.53;;
15116;SDS011;7659;51.038;13.786;2023-03-13T05:42:10;21.83;;;5.03;;
15116;SDS011;7659;51.038;13.786;2023-03-13T05:44:59;24.13;;;7.75;;
15116;SDS011;7659;51.038;13.786;2023-03-13T05:47:43;24.35;;;8.60;;
15116;SDS011;7659;51.038;13.786;2023-03-13T05:50:38;23.15;;;8.60;;
15116;SDS011;7659;51.038;13.786;2023-03-13T05:53:39;22.17;;;7.15;;
15116;SDS011;7659;51.038;13.786;2023-03-13T05:56:15;24.45;;;7.40;;
15116;SDS011;7659;51.038;13.786;2023-03-13T05:58:59;20.20;;;7.03;;
15116;SDS011;7659;51.038;13.786;2023-03-13T06:01:47;27.02;;;6.13;;
15116;SDS011;7659;51.038;13.786;2023-03-13T06:04:28;25.02;;;6.18;;
15116;SDS011;7659;51.038;13.786;2023-03-13T06:06:54;19.40;;;6.10;;
15116;SDS011;7659;51.038;13.786;2023-03-13T06:09:20;25.35;;;6.05;;
15116;SDS011;7659;51.038;13.786;2023-03-13T06:11:45;20.58;;;5.47;;
15116;SDS011;7659;51.038;13.786;2023-03-13T06:14:11;18.88;;;5.22;;
15116;SDS011;7659;51.038;13.786;2023-03-13T06:16:42;24.25;;;6.07;;
15116;SDS011;7659;51.038;13.786;2023-03-13T06:19:13;17.42;;;5.80;;
15116;SDS011;7659;51.038;13.786;2023-03-13T06:21:39;19.83;;;5.88;;
15116;SDS011;7659;51.038;13.786;2023-03-13T06:24:04;19.90;;;6.22;;
15116;SDS011;7659;51.038;13.786;2023-03-13T06:26:30;18.38;;;6.38;;
15116;SDS011;7659;51.038;13.786;2023-03-13T06:28:55;27.95;;;8.00;;
15116;SDS011;7659;51.038;13.786;2023-03-13T06:31:20;18.83;;;7.03;;
15116;SDS011;7659;51.038;13.786;2023-03-13T06:33:46;18.25;;;7.97;;
15116;SDS011;7659;51.038;13.786;2023-03-13T06:36:11;18.33;;;7.78;;
15116;SDS011;7659;51.038;13.786;2023-03-13T06:38:37;23.73;;;7.93;;
15116;SDS011;7659;51.038;13.786;2023-03-13T06:41:02;16.83;;;7.45;;
15116;SDS011;7659;51.038;13.786;2023-03-13T06:43:28;18.63;;;7.78;;
15116;SDS011;7659;51.038;13.786;2023-03-13T06:45:53;20.35;;;8.95;;
15116;SDS011;7659;51.038;13.786;2023-03-13T06:48:19;21.38;;;8.27;;
15116;SDS011;7659;51.038;13.786;2023-03-13T06:50:47;16.83;;;7.72;;
15116;SDS011;7659;51.038;13.786;2023-03-13T06:53:16;20.02;;;7.95;;
15116;SDS011;7659;51.038;13.786;2023-03-13T06:55:42;21.60;;;7.50;;
15116;SDS011;7659;51.038;13.786;2023-03-13T06:58:08;18.02;;;6.85;;
15116;SDS011;7659;51.038;13.786;2023-03-13T07:00:33;14.63;;;6.20;;
15116;SDS011;7659;51.038;13.786;2023-03-13T07:02:59;20.90;;;5.68;;
15116;SDS011;7659;51.038;13.786;2023-03-13T07:05:24;15.95;;;5.57;;
15116;SDS011;7659;51.038;13.786;2023-03-13T07:07:50;19.13;;;7.00;;
15116;SDS011;7659;51.038;13.786;2023-03-13T07:10:15;19.23;;;6.80;;
15116;SDS011;7659;51.038;13.786;2023-03-13T07:12:41;17.77;;;6.18;;
15116;SDS011;7659;51.038;13.786;2023-03-13T07:15:06;13.02;;;6.30;;
15116;SDS011;7659;51.038;13.786;2023-03-13T07:17:32;14.57;;;6.43;;
15116;SDS011;7659;51.038;13.786;2023-03-13T07:19:58;20.52;;;6.80;;
15116;SDS011;7659;51.038;13.786;2023-03-13T07:22:23;16.63;;;6.60;;
15116;SDS011;7659;51.038;13.786;2023-03-13T07:24:48;14.38;;;5.95;;
15116;SDS011;7659;51.038;13.786;2023-03-13T07:27:14;19.40;;;6.60;;
15116;SDS011;7659;51.038;13.786;2023-03-13T07:29:41;14.02;;;6.07;;
15116;SDS011;7659;51.038;13.786;2023-03-13T07:32:07;17.02;;;6.25;;
15116;SDS011;7659;51.038;13.786;2023-03-13T07:34:32;15.63;;;4.72;;
15116;SDS011;7659;51.038;13.786;2023-03-13T07:36:57;12.52;;;4.07;;
15116;SDS011;7659;51.038;13.786;2023-03-13T07:39:23;11.75;;;4.47;;
15116;SDS011;7659;51.038;13.786;2023-03-13T07:41:49;11.63;;;4.38;;
15116;SDS011;7659;51.038;13.786;2023-03-13T07:44:15;9.13;;;3.40;;
15116;SDS011;7659;51.038;13.786;2023-03-13T07:46:41;12.20;;;3.85;;
15116;SDS011;7659;51.038;13.786;2023-03-13T07:49:06;11.88;;;3.65;;
15116;SDS011;7659;51.038;13.786;2023-03-13T07:51:32;11.93;;;3.45;;
15116;SDS011;7659;51.038;13.786;2023-03-13T07:53:57;14.05;;;3.55;;
15116;SDS011;7659;51.038;13.786;2023-03-13T07:56:23;11.43;;;3.33;;
15116;SDS011;7659;51.038;13.786;2023-03-13T07:58:49;9.90;;;3.08;;
15116;SDS011;7659;51.038;13.786;2023-03-13T08:01:21;10.48;;;3.10;;
15116;SDS011;7659;51.038;13.786;2023-03-13T08:03:47;13.25;;;4.07;;
15116;SDS011;7659;51.038;13.786;2023-03-13T08:06:15;12.40;;;4.32;;
15116;SDS011;7659;51.038;13.786;2023-03-13T08:08:41;12.57;;;4.60;;
15116;SDS011;7659;51.038;13.786;2023-03-13T08:13:36;11.48;;;5.38;;
15116;SDS011;7659;51.038;13.786;2023-03-13T08:16:02;14.38;;;5.40;;
15116;SDS011;7659;51.038;13.786;2023-03-13T08:18:28;14.00;;;5.68;;
15116;SDS011;7659;51.038;13.786;2023-03-13T08:20:53;20.77;;;6.65;;
15116;SDS011;7659;51.038;13.786;2023-03-13T08:23:19;17.85;;;6.07;;
15116;SDS011;7659;51.038;13.786;2023-03-13T08:25:44;14.32;;;5.97;;
15116;SDS011;7659;51.038;13.786;2023-03-13T08:28:10;13.00;;;6.13;;
15116;SDS011;7659;51.038;13.786;2023-03-13T08:30:35;18.05;;;6.65;;
15116;SDS011;7659;51.038;13.786;2023-03-13T08:33:01;11.63;;;5.95;;
15116;SDS011;7659;51.038;13.786;2023-03-13T08:35:27;11.65;;;5.18;;
15116;SDS011;7659;51.038;13.786;2023-03-13T08:37:52;14.65;;;6.45;;
15116;SDS011;7659;51.038;13.786;2023-03-13T08:40:18;13.07;;;6.10;;
15116;SDS011;7659;51.038;13.786;2023-03-13T08:42:43;12.10;;;6.00;;
15116;SDS011;7659;51.038;13.786;2023-03-13T08:45:09;13.93;;;5.88;;
15116;SDS011;7659;51.038;13.786;2023-03-13T08:47:34;11.32;;;4.93;;
15116;SDS011;7659;51.038;13.786;2023-03-13T08:50:00;12.52;;;5.20;;
15116;SDS011;7659;51.038;13.786;2023-03-13T08:52:26;12.98;;;5.78;;
15116;SDS011;7659;51.038;13.786;2023-03-13T08:54:51;15.02;;;5.15;;
15116;SDS011;7659;51.038;13.786;2023-03-13T08:57:17;12.18;;;5.32;;
15116;SDS011;7659;51.038;13.786;2023-03-13T08:59:43;11.85;;;5.28;;
15116;SDS011;7659;51.038;13.786;2023-03-13T09:02:08;12.70;;;5.30;;
15116;SDS011;7659;51.038;13.786;2023-03-13T09:04:34;13.77;;;5.70;;
15116;SDS011;7659;51.038;13.786;2023-03-13T09:06:59;13.20;;;4.88;;
15116;SDS011;7659;51.038;13.786;2023-03-13T09:09:24;9.10;;;3.70;;
15116;SDS011;7659;51.038;13.786;2023-03-13T09:11:50;7.40;;;2.63;;
15116;SDS011;7659;51.038;13.786;2023-03-13T09:14:15;8.75;;;2.80;;
15116;SDS011;7659;51.038;13.786;2023-03-13T09:16:41;5.15;;;2.05;;
15116;SDS011;7659;51.038;13.786;2023-03-13T09:19:07;5.35;;;1.60;;
15116;SDS011;7659;51.038;13.786;2023-03-13T09:21:33;5.65;;;1.92;;
15116;SDS011;7659;51.038;13.786;2023-03-13T09:23:59;6.78;;;2.53;;
15116;SDS011;7659;51.038;13.786;2023-03-13T09:26:25;8.52;;;2.70;;
15116;SDS011;7659;51.038;13.786;2023-03-13T09:28:51;4.82;;;1.83;;
15116;SDS011;7659;51.038;13.786;2023-03-13T09:31:18;5.45;;;1.70;;
15116;SDS011;7659;51.038;13.786;2023-03-13T09:33:44;6.35;;;1.80;;
15116;SDS011;7659;51.038;13.786;2023-03-13T09:36:10;5.78;;;1.70;;
15116;SDS011;7659;51.038;13.786;2023-03-13T09:38:36;4.57;;;1.33;;
15116;SDS011;7659;51.038;13.786;2023-03-13T09:43:46;5.93;;;1.20;;
15116;SDS011;7659;51.038;13.786;2023-03-13T09:46:15;4.15;;;1.20;;
15116;SDS011;7659;51.038;13.786;2023-03-13T09:48:47;4.53;;;1.10;;
15116;SDS011;7659;51.038;13.786;2023-03-13T09:51:17;3.25;;;1.13;;
15116;SDS011;7659;51.038;13.786;2023-03-13T09:53:48;7.95;;;1.30;;
15116;SDS011;7659;51.038;13.786;2023-03-13T09:56:16;4.97;;;1.25;;
15116;SDS011;7659;51.038;13.786;2023-03-13T09:58:49;4.18;;;1.67;;
15116;SDS011;7659;51.038;13.786;2023-03-13T10:01:16;5.85;;;1.35;;
15116;SDS011;7659;51.038;13.786;2023-03-13T10:08:48;4.93;;;1.60;;
15116;SDS011;7659;51.038;13.786;2023-03-13T10:11:32;3.92;;;1.58;;
15116;SDS011;7659;51.038;13.786;2023-03-13T10:14:04;3.53;;;1.33;;
15116;SDS011;7659;51.038;13.786;2023-03-13T10:16:34;2.90;;;1.20;;
15116;SDS011;7659;51.038;13.786;2023-03-13T10:19:07;2.67;;;1.25;;
15116;SDS011;7659;51.038;13.786;2023-03-13T10:21:33;3.08;;;1.30;;
15116;SDS011;7659;51.038;13.786;2023-03-13T10:24:04;3.70;;;1.63;;
15116;SDS011;7659;51.038;13.786;2023-03-13T10:26:32;5.13;;;1.67;;
15116;SDS011;7659;51.038;13.786;2023-03-13T10:29:00;4.78;;;1.52;;
15116;SDS011;7659;51.038;13.786;2023-03-13T10:31:30;2.42;;;1.20;;
15116;SDS011;7659;51.038;13.786;2023-03-13T10:34:09;2.92;;;1.25;;
15116;SDS011;7659;51.038;13.786;2023-03-13T10:36:45;3.65;;;0.93;;
15116;SDS011;7659;51.038;13.786;2023-03-13T10:39:21;3.03;;;1.17;;
15116;SDS011;7659;51.038;13.786;2023-03-13T10:41:49;2.00;;;0.77;;
15116;SDS011;7659;51.038;13.786;2023-03-13T10:46:42;2.47;;;0.95;;
15116;SDS011;7659;51.038;13.786;2023-03-13T10:54:21;1.90;;;1.00;;
15116;SDS011;7659;51.038;13.786;2023-03-13T10:56:47;2.42;;;1.40;;
15116;SDS011;7659;51.038;13.786;2023-03-13T10:59:17;2.45;;;1.50;;
15116;SDS011;7659;51.038;13.786;2023-03-13T11:01:45;3.35;;;1.70;;
15116;SDS011;7659;51.038;13.786;2023-03-13T11:04:19;3.00;;;1.20;;
15116;SDS011;7659;51.038;13.786;2023-03-13T11:06:51;4.30;;;2.78;;
15116;SDS011;7659;51.038;13.786;2023-03-13T11:09:22;3.72;;;2.85;;
15116;SDS011;7659;51.038;13.786;2023-03-13T11:11:52;2.30;;;1.10;;
15116;SDS011;7659;51.038;13.786;2023-03-13T11:14:19;2.67;;;1.30;;
15116;SDS011;7659;51.038;13.786;2023-03-13T11:16:46;3.28;;;0.90;;
15116;SDS011;7659;51.038;13.786;2023-03-13T11:26:56;5.68;;;1.00;;
15116;SDS011;7659;51.038;13.786;2023-03-13T11:29:30;2.70;;;0.90;;
15116;SDS011;7659;51.038;13.786;2023-03-13T11:31:59;3.88;;;0.82;;
15116;SDS011;7659;51.038;13.786;2023-03-13T11:34:31;1.60;;;1.02;;
15116;SDS011;7659;51.038;13.786;2023-03-13T11:47:40;4.22;;;2.42;;
15116;SDS011;7659;51.038;13.786;2023-03-13T11:55:28;2.47;;;0.73;;
15116;SDS011;7659;51.038;13.786;2023-03-13T12:05:22;1.60;;;0.80;;
15116;SDS011;7659;51.038;13.786;2023-03-13T12:08:01;3.92;;;0.90;;
15116;SDS011;7659;51.038;13.786;2023-03-13T12:10:30;1.10;;;0.60;;
15116;SDS011;7659;51.038;13.786;2023-03-13T12:13:02;1.67;;;0.65;;
15116;SDS011;7659;51.038;13.786;2023-03-13T12:15:30;1.58;;;0.70;;
15116;SDS011;7659;51.038;13.786;2023-03-13T12:20:26;3.17;;;0.70;;
15116;SDS011;7659;51.038;13.786;2023-03-13T12:25:24;0.73;;;0.60;;
15116;SDS011;7659;51.038;13.786;2023-03-13T12:30:37;7.90;;;4.35;;
15116;SDS011;7659;51.038;13.786;2023-03-13T12:36:02;4.25;;;0.70;;
15116;SDS011;7659;51.038;13.786;2023-03-13T12:38:52;1.42;;;0.70;;
15116;SDS011;7659;51.038;13.786;2023-03-13T12:41:23;2.75;;;0.70;;
15116;SDS011;7659;51.038;13.786;2023-03-13T12:43:51;2.45;;;0.60;;
15116;SDS011;7659;51.038;13.786;2023-03-13T12:49:08;1.70;;;0.60;;
15116;SDS011;7659;51.038;13.786;2023-03-13T12:59:10;1.25;;;0.70;;
15116;SDS011;7659;51.038;13.786;2023-03-13T13:01:46;1.38;;;0.50;;
15116;SDS011;7659;51.038;13.786;2023-03-13T13:04:13;1.35;;;0.57;;
15116;SDS011;7659;51.038;13.786;2023-03-13T13:06:49;1.00;;;0.60;;
15116;SDS011;7659;51.038;13.786;2023-03-13T13:09:34;1.92;;;0.60;;
15116;SDS011;7659;51.038;13.786;2023-03-13T13:12:19;1.67;;;0.63;;
15116;SDS011;7659;51.038;13.786;2023-03-13T13:17:15;1.70;;;0.70;;
15116;SDS011;7659;51.038;13.786;2023-03-13T13:24:55;2.03;;;0.70;;
15116;SDS011;7659;51.038;13.786;2023-03-13T13:30:43;1.35;;;0.60;;
15116;SDS011;7659;51.038;13.786;2023-03-13T13:32:51;2.42;;;0.70;;
15116;SDS011;7659;51.038;13.786;2023-03-13T13:35:24;1.23;;;0.60;;
15116;SDS011;7659;51.038;13.786;2023-03-13T13:37:50;1.40;;;0.60;;
15116;SDS011;7659;51.038;13.786;2023-03-13T13:40:20;2.08;;;0.63;;
15116;SDS011;7659;51.038;13.786;2023-03-13T13:42:50;1.58;;;0.47;;
15116;SDS011;7659;51.038;13.786;2023-03-13T13:47:48;1.25;;;0.60;;
15116;SDS011;7659;51.038;13.786;2023-03-13T13:50:21;1.90;;;0.50;;
15116;SDS011;7659;51.038;13.786;2023-03-13T13:52:48;1.35;;;0.55;;
15116;SDS011;7659;51.038;13.786;2023-03-13T13:55:31;1.55;;;0.70;;
15116;SDS011;7659;51.038;13.786;2023-03-13T13:58:09;1.17;;;0.65;;
15116;SDS011;7659;51.038;13.786;2023-03-13T14:00:40;1.02;;;0.50;;
15116;SDS011;7659;51.038;13.786;2023-03-13T14:03:15;1.48;;;0.77;;
15116;SDS011;7659;51.038;13.786;2023-03-13T14:05:41;3.17;;;0.80;;
15116;SDS011;7659;51.038;13.786;2023-03-13T14:08:07;3.65;;;0.95;;
15116;SDS011;7659;51.038;13.786;2023-03-13T14:10:39;8.43;;;3.25;;
15116;SDS011;7659;51.038;13.786;2023-03-13T14:13:23;3.55;;;1.00;;
15116;SDS011;7659;51.038;13.786;2023-03-13T14:15:52;2.17;;;0.90;;
15116;SDS011;7659;51.038;13.786;2023-03-13T14:18:22;5.05;;;1.10;;
15116;SDS011;7659;51.038;13.786;2023-03-13T14:23:13;2.35;;;1.30;;
15116;SDS011;7659;51.038;13.786;2023-03-13T14:25:48;4.22;;;1.23;;
15116;SDS011;7659;51.038;13.786;2023-03-13T14:28:18;2.70;;;0.75;;
15116;SDS011;7659;51.038;13.786;2023-03-13T14:30:44;2.22;;;1.15;;
15116;SDS011;7659;51.038;13.786;2023-03-13T14:33:10;2.33;;;0.93;;
15116;SDS011;7659;51.038;13.786;2023-03-13T14:35:36;1.70;;;0.63;;
15116;SDS011;7659;51.038;13.786;2023-03-13T14:38:01;1.58;;;0.70;;
15116;SDS011;7659;51.038;13.786;2023-03-13T14:40:28;2.15;;;0.68;;
15116;SDS011;7659;51.038;13.786;2023-03-13T14:42:56;1.08;;;0.55;;
15116;SDS011;7659;51.038;13.786;2023-03-13T14:47:48;1.42;;;0.60;;
15116;SDS011;7659;51.038;13.786;2023-03-13T14:50:14;2.55;;;0.85;;
15116;SDS011;7659;51.038;13.786;2023-03-13T14:52:47;2.00;;;0.77;;
15116;SDS011;7659;51.038;13.786;2023-03-13T14:58:02;1.30;;;0.70;;
15116;SDS011;7659;51.038;13.786;2023-03-13T15:00:38;2.55;;;0.80;;
15116;SDS011;7659;51.038;13.786;2023-03-13T15:03:42;4.95;;;0.90;;
15116;SDS011;7659;51.038;13.786;2023-03-13T15:08:34;3.63;;;0.80;;
15116;SDS011;7659;51.038;13.786;2023-03-13T15:11:00;1.50;;;0.60;;
15116;SDS011;7659;51.038;13.786;2023-03-13T15:15:53;1.83;;;0.70;;
15116;SDS011;7659;51.038;13.786;2023-03-13T15:18:20;5.97;;;0.88;;
15116;SDS011;7659;51.038;13.786;2023-03-13T15:20:49;2.17;;;0.80;;
15116;SDS011;7659;51.038;13.786;2023-03-13T15:23:15;2.08;;;0.70;;
15116;SDS011;7659;51.038;13.786;2023-03-13T15:25:40;2.35;;;0.88;;
15116;SDS011;7659;51.038;13.786;2023-03-13T15:28:13;1.75;;;0.75;;
15116;SDS011;7659;51.038;13.786;2023-03-13T15:30:39;2.45;;;0.80;;
15116;SDS011;7659;51.038;13.786;2023-03-13T15:33:05;1.10;;;0.90;;
15116;SDS011;7659;51.038;13.786;2023-03-13T15:35:31;2.53;;;0.90;;
15116;SDS011;7659;51.038;13.786;2023-03-13T15:37:57;3.13;;;1.17;;
15116;SDS011;7659;51.038;13.786;2023-03-13T15:40:23;2.05;;;1.00;;
15116;SDS011;7659;51.038;13.786;2023-03-13T15:42:49;1.92;;;1.00;;
15116;SDS011;7659;51.038;13.786;2023-03-13T15:45:15;4.30;;;1.00;;
15116;SDS011;7659;51.038;13.786;2023-03-13T15:47:40;1.08;;;0.90;;
15116;SDS011;7659;51.038;13.786;2023-03-13T15:50:10;4.03;;;0.90;;
15116;SDS011;7659;51.038;13.786;2023-03-13T15:52:36;1.23;;;0.68;;
15116;SDS011;7659;51.038;13.786;2023-03-13T15:55:01;2.63;;;0.73;;
15116;SDS011;7659;51.038;13.786;2023-03-13T15:57:27;3.22;;;0.80;;
15116;SDS011;7659;51.038;13.786;2023-03-13T15:59:52;1.92;;;0.70;;
15116;SDS011;7659;51.038;13.786;2023-03-13T16:02:19;2.30;;;0.80;;
15116;SDS011;7659;51.038;13.786;2023-03-13T16:04:45;1.92;;;0.63;;
15116;SDS011;7659;51.038;13.786;2023-03-13T16:07:11;3.90;;;1.00;;
15116;SDS011;7659;51.038;13.786;2023-03-13T16:09:37;2.05;;;0.88;;
15116;SDS011;7659;51.038;13.786;2023-03-13T16:12:03;1.90;;;0.80;;
15116;SDS011;7659;51.038;13.786;2023-03-13T16:14:29;1.73;;;0.85;;
15116;SDS011;7659;51.038;13.786;2023-03-13T16:16:54;2.45;;;0.80;;
15116;SDS011;7659;51.038;13.786;2023-03-13T16:19:20;3.08;;;0.90;;
15116;SDS011;7659;51.038;13.786;2023-03-13T16:21:45;1.25;;;0.70;;
15116;SDS011;7659;51.038;13.786;2023-03-13T16:24:13;1.88;;;0.75;;
15116;SDS011;7659;51.038;13.786;2023-03-13T16:26:38;2.15;;;0.80;;
15116;SDS011;7659;51.038;13.786;2023-03-13T16:29:04;1.15;;;0.82;;
15116;SDS011;7659;51.038;13.786;2023-03-13T16:31:30;1.58;;;0.80;;
15116;SDS011;7659;51.038;13.786;2023-03-13T16:33:56;2.10;;;0.73;;